Time;durP1;ratioP1;P1;durP2;ratioP2;P2;SDS_P1;SDS_P2;PMS_P1;PMS_P2;Temp;Humidity;BMP_temperature;BMP_pressure;BME280_temperature;BME280_humidity;BME280_pressure;Samples;Min_cycle;Max_cycle;Signal;HPM_P1;HPM_P2
2023/05/08 00:00:37;;;;;;;7.72;6.70;;;11.30;99.90;;;;;;4987282;28;20293;-73
2023/05/08 00:03:04;;;;;;;11.93;7.55;;;11.20;99.90;;;;;;5001564;28;20231;-73
2023/05/08 00:05:31;;;;;;;7.32;6.65;;;11.20;99.90;;;;;;4996807;28;20209;-73
2023/05/08 00:08:00;;;;;;;9.38;8.45;;;11.20;99.90;;;;;;4997195;28;20295;-72
2023/05/08 00:10:29;;;;;;;8.68;7.85;;;11.20;99.90;;;;;;4994183;28;20220;-74
2023/05/08 00:12:57;;;;;;;9.60;8.40;;;11.20;99.90;;;;;;4998173;28;20293;-72
2023/05/08 00:15:24;;;;;;;9.30;8.40;;;11.10;99.90;;;;;;5009113;28;20247;-74
2023/05/08 00:17:51;;;;;;;8.57;7.30;;;11.20;99.90;;;;;;4996686;28;20234;-72
2023/05/08 00:20:18;;;;;;;7.93;7.13;;;11.20;99.90;;;;;;5001572;28;20594;-73
2023/05/08 00:22:45;;;;;;;8.52;7.53;;;11.10;99.90;;;;;;5003741;28;20238;-73
2023/05/08 00:25:12;;;;;;;8.32;7.50;;;11.10;99.90;;;;;;5004867;28;20285;-74
2023/05/08 00:27:39;;;;;;;11.68;7.93;;;11.10;99.90;;;;;;5004285;28;20649;-74
2023/05/08 00:30:09;;;;;;;10.35;8.50;;;11.10;99.90;;;;;;5010186;28;20219;-73
2023/05/08 00:32:36;;;;;;;8.40;7.00;;;11.10;99.90;;;;;;4991866;28;20287;-73
2023/05/08 00:35:04;;;;;;;9.07;8.13;;;11.10;99.90;;;;;;4998954;28;20266;-73
2023/05/08 00:37:30;;;;;;;9.90;7.57;;;11.10;99.90;;;;;;4995535;28;20197;-74
2023/05/08 00:39:57;;;;;;;8.57;7.40;;;11.10;99.90;;;;;;5001635;28;20308;-74
2023/05/08 00:42:24;;;;;;;11.45;7.85;;;11.20;99.90;;;;;;4998107;28;20735;-74
2023/05/08 00:44:52;;;;;;;8.27;7.47;;;11.10;99.90;;;;;;5004088;28;20282;-73
2023/05/08 00:47:22;;;;;;;8.90;8.07;;;11.20;99.90;;;;;;4999904;28;20282;-74
2023/05/08 00:49:49;;;;;;;10.30;9.30;;;11.20;99.90;;;;;;4986615;28;20322;-73
2023/05/08 00:52:17;;;;;;;10.70;9.45;;;11.10;99.90;;;;;;4992385;28;20203;-73
2023/05/08 00:54:45;;;;;;;8.05;7.30;;;11.10;99.90;;;;;;4990941;28;20723;-74
2023/05/08 00:57:12;;;;;;;8.10;7.40;;;11.10;99.90;;;;;;4993307;28;20199;-73
2023/05/08 00:59:41;;;;;;;9.23;8.35;;;11.10;99.90;;;;;;5003516;28;20222;-73
2023/05/08 01:02:08;;;;;;;9.98;7.85;;;11.10;99.90;;;;;;5002594;28;20210;-73
2023/05/08 01:04:38;;;;;;;8.25;7.40;;;11.10;99.90;;;;;;5003476;28;20661;-74
2023/05/08 01:07:04;;;;;;;8.05;7.25;;;11.10;99.90;;;;;;5007360;28;20615;-74
2023/05/08 01:09:32;;;;;;;8.35;7.55;;;11.10;99.90;;;;;;5004500;28;20227;-73
2023/05/08 01:12:08;;;;;;;8.02;7.22;;;11.10;99.90;;;;;;4984129;28;20305;-73
2023/05/08 01:14:44;;;;;;;7.95;7.25;;;11.00;99.90;;;;;;5008598;28;20227;-74
2023/05/08 01:17:21;;;;;;;7.75;7.05;;;11.10;99.90;;;;;;4987682;28;20204;-73
2023/05/08 01:20:09;;;;;;;8.80;8.00;;;11.10;99.90;;;;;;4984820;28;20724;-73
2023/05/08 01:23:00;;;;;;;8.88;7.05;;;11.00;99.90;;;;;;5001170;28;20293;-74
2023/05/08 01:26:04;;;;;;;8.23;7.47;;;11.00;99.90;;;;;;4982308;28;20202;-73
2023/05/08 01:29:15;;;;;;;8.77;7.93;;;11.00;99.90;;;;;;5004764;28;20198;-73
2023/05/08 01:31:54;;;;;;;7.82;7.03;;;10.90;99.90;;;;;;4920525;29;20266;-73
2023/05/08 01:34:27;;;;;;;10.07;9.02;;;10.90;99.90;;;;;;4973837;28;20262;-73
2023/05/08 01:37:00;;;;;;;8.68;7.57;;;10.90;99.90;;;;;;5001852;28;20799;-74
2023/05/08 01:39:34;;;;;;;10.02;8.63;;;10.80;99.90;;;;;;5005178;28;20657;-74
2023/05/08 01:42:05;;;;;;;8.65;7.85;;;10.80;99.90;;;;;;4971051;28;20214;-73
2023/05/08 01:44:38;;;;;;;8.05;7.28;;;10.80;99.90;;;;;;4998317;28;20194;-73
2023/05/08 01:47:07;;;;;;;9.05;8.18;;;10.80;99.90;;;;;;5001154;28;20208;-73
2023/05/08 01:49:42;;;;;;;9.38;8.43;;;10.70;99.90;;;;;;4997948;28;20232;-74
2023/05/08 01:52:18;;;;;;;9.23;8.52;;;10.70;99.90;;;;;;4996832;28;20619;-73
2023/05/08 01:54:50;;;;;;;8.88;7.78;;;10.70;99.90;;;;;;4980357;28;20234;-74
2023/05/08 01:57:19;;;;;;;10.00;9.10;;;10.70;99.90;;;;;;4999408;28;20202;-73
2023/05/08 01:59:47;;;;;;;9.68;8.73;;;10.80;99.90;;;;;;4999075;28;20230;-74
2023/05/08 02:02:19;;;;;;;10.27;9.35;;;10.60;99.90;;;;;;4999513;28;20301;-73
2023/05/08 02:04:49;;;;;;;8.55;7.75;;;10.60;99.90;;;;;;4999833;28;20663;-73
2023/05/08 02:07:16;;;;;;;10.38;9.48;;;10.60;99.90;;;;;;4999208;28;20211;-74
2023/05/08 02:09:44;;;;;;;9.60;8.70;;;10.60;99.90;;;;;;4995624;28;20277;-73
2023/05/08 02:12:13;;;;;;;10.10;8.90;;;10.50;99.90;;;;;;5009609;28;20350;-74
2023/05/08 02:14:41;;;;;;;10.10;8.65;;;10.50;99.90;;;;;;5005161;28;20213;-72
2023/05/08 02:17:10;;;;;;;9.10;8.20;;;10.50;99.90;;;;;;5001324;28;20234;-73
2023/05/08 02:19:41;;;;;;;9.82;9.00;;;10.40;99.90;;;;;;5000546;28;20227;-74
2023/05/08 02:22:10;;;;;;;11.23;10.23;;;10.40;99.90;;;;;;4994032;28;20745;-74
2023/05/08 02:24:38;;;;;;;10.15;9.25;;;10.50;99.90;;;;;;5001974;28;20230;-74
2023/05/08 02:27:07;;;;;;;13.43;10.25;;;10.40;99.90;;;;;;5009315;28;20223;-73
2023/05/08 02:29:36;;;;;;;10.85;9.82;;;10.40;99.90;;;;;;5000653;28;20254;-74
2023/05/08 02:32:04;;;;;;;9.98;9.05;;;10.30;99.90;;;;;;5005326;28;20209;-74
2023/05/08 02:34:32;;;;;;;11.18;8.95;;;10.30;99.90;;;;;;5003457;28;20246;-75
2023/05/08 02:37:00;;;;;;;11.35;10.25;;;10.30;99.90;;;;;;5007349;28;20201;-72
2023/05/08 02:39:30;;;;;;;10.25;9.25;;;10.30;99.90;;;;;;5007453;28;20221;-75
2023/05/08 02:41:58;;;;;;;10.90;9.88;;;10.30;99.90;;;;;;5011519;28;20193;-73
2023/05/08 02:44:25;;;;;;;10.50;9.50;;;10.20;99.90;;;;;;5004565;28;20293;-72
2023/05/08 02:47:00;;;;;;;9.15;8.20;;;10.20;99.90;;;;;;4988736;28;20190;-73
2023/05/08 02:49:31;;;;;;;10.65;9.60;;;10.20;99.90;;;;;;5001384;28;20691;-72
2023/05/08 02:52:05;;;;;;;12.05;10.90;;;10.20;99.90;;;;;;4997442;28;20203;-73
2023/05/08 02:54:42;;;;;;;10.55;9.23;;;10.20;99.90;;;;;;4997057;28;20223;-73
2023/05/08 02:57:14;;;;;;;10.80;9.90;;;10.10;99.90;;;;;;4969367;28;20336;-73
2023/05/08 02:59:46;;;;;;;10.05;9.15;;;10.10;99.90;;;;;;4984235;28;20715;-73
2023/05/08 03:02:22;;;;;;;9.38;8.48;;;10.10;99.90;;;;;;4997537;28;20660;-71
2023/05/08 03:04:53;;;;;;;10.75;9.75;;;10.10;99.90;;;;;;4985056;28;20234;-73
2023/05/08 03:07:23;;;;;;;23.20;10.52;;;10.10;99.90;;;;;;5009065;28;20223;-74
2023/05/08 03:10:03;;;;;;;11.20;10.10;;;10.00;99.90;;;;;;4997349;28;20309;-73
2023/05/08 03:12:33;;;;;;;11.50;10.25;;;10.10;99.90;;;;;;4994919;28;20301;-73
2023/05/08 03:15:06;;;;;;;11.35;10.20;;;10.10;99.90;;;;;;5000521;28;20211;-73
2023/05/08 03:17:35;;;;;;;10.07;9.18;;;10.00;99.90;;;;;;4997521;28;20291;-73
2023/05/08 03:20:06;;;;;;;11.52;10.45;;;10.00;99.90;;;;;;5002007;28;20657;-73
2023/05/08 03:22:35;;;;;;;11.13;9.82;;;10.00;99.90;;;;;;4995181;28;20265;-72
2023/05/08 03:25:07;;;;;;;9.77;8.90;;;9.90;99.90;;;;;;5002529;28;20208;-74
2023/05/08 03:27:35;;;;;;;13.02;10.15;;;9.90;99.90;;;;;;4998077;28;20210;-74
2023/05/08 03:30:04;;;;;;;10.90;9.80;;;9.90;99.90;;;;;;4988281;28;20723;-73
2023/05/08 03:32:32;;;;;;;10.50;9.48;;;9.90;99.90;;;;;;4999619;28;20207;-73
2023/05/08 03:35:01;;;;;;;11.85;10.73;;;9.90;99.90;;;;;;4986299;28;20799;-73
2023/05/08 03:37:28;;;;;;;10.85;9.85;;;9.90;99.90;;;;;;5009076;28;20225;-72
2023/05/08 03:39:55;;;;;;;12.10;10.93;;;9.90;99.90;;;;;;5004867;28;20695;-74
2023/05/08 03:42:24;;;;;;;10.77;9.77;;;9.80;99.90;;;;;;5001085;28;20201;-72
2023/05/08 03:44:52;;;;;;;11.40;10.30;;;9.90;99.90;;;;;;4990578;28;20306;-74
2023/05/08 03:47:19;;;;;;;12.00;10.95;;;9.80;99.90;;;;;;5002993;28;20209;-74
2023/05/08 03:49:47;;;;;;;12.00;10.77;;;9.80;99.90;;;;;;4994056;28;20710;-74
2023/05/08 03:52:14;;;;;;;11.32;10.32;;;9.80;99.90;;;;;;4995659;28;20241;-73
2023/05/08 03:54:42;;;;;;;12.00;10.80;;;9.80;99.90;;;;;;5000552;28;20213;-73
2023/05/08 03:57:09;;;;;;;11.73;10.40;;;9.80;99.90;;;;;;4998202;28;20204;-72
2023/05/08 03:59:43;;;;;;;11.45;10.35;;;9.80;99.90;;;;;;5004230;28;20235;-73
2023/05/08 04:02:18;;;;;;;11.48;10.38;;;9.80;99.90;;;;;;4987082;28;20293;-73
2023/05/08 04:04:49;;;;;;;13.02;11.45;;;9.80;99.90;;;;;;4987338;28;20626;-74
2023/05/08 04:07:29;;;;;;;12.38;10.25;;;9.70;99.90;;;;;;5006301;28;20201;-74
2023/05/08 04:10:03;;;;;;;11.27;10.27;;;9.70;99.90;;;;;;5006258;28;20235;-73
2023/05/08 04:12:38;;;;;;;10.85;9.75;;;9.80;99.90;;;;;;4984707;28;20209;-74
2023/05/08 04:15:10;;;;;;;11.60;10.45;;;9.70;99.90;;;;;;4988575;28;20304;-74
2023/05/08 04:17:42;;;;;;;12.38;10.65;;;9.80;99.90;;;;;;5000943;28;20205;-72
2023/05/08 04:20:14;;;;;;;12.30;11.10;;;9.80;99.90;;;;;;5009409;28;20240;-74
2023/05/08 04:22:43;;;;;;;10.35;9.32;;;9.80;99.90;;;;;;5001115;28;20305;-72
2023/05/08 04:25:12;;;;;;;11.98;10.40;;;9.80;99.90;;;;;;5005910;28;20229;-74
2023/05/08 04:27:39;;;;;;;12.63;11.30;;;9.80;99.90;;;;;;4997500;28;20194;-73
2023/05/08 04:30:10;;;;;;;11.70;10.50;;;9.90;99.90;;;;;;5002762;28;20234;-72
2023/05/08 04:32:38;;;;;;;10.63;9.65;;;9.90;99.90;;;;;;4998232;28;20293;-72
2023/05/08 04:35:06;;;;;;;11.43;10.30;;;9.90;99.90;;;;;;4994438;28;20649;-73
2023/05/08 04:37:34;;;;;;;12.15;10.95;;;9.90;99.90;;;;;;4993446;28;20657;-74
2023/05/08 04:40:02;;;;;;;11.35;10.25;;;9.90;99.90;;;;;;4995643;28;20231;-73
2023/05/08 04:42:29;;;;;;;10.45;9.35;;;10.10;99.90;;;;;;5002924;28;20274;-73
2023/05/08 04:44:56;;;;;;;10.43;9.40;;;10.30;99.90;;;;;;5004299;28;20224;-73
2023/05/08 04:47:24;;;;;;;9.75;8.75;;;10.50;99.90;;;;;;4998809;28;20203;-73
2023/05/08 04:49:51;;;;;;;10.20;9.30;;;10.50;99.90;;;;;;5002435;28;20292;-73
2023/05/08 04:52:18;;;;;;;9.82;8.82;;;10.60;99.90;;;;;;4997389;28;20196;-74
2023/05/08 04:54:45;;;;;;;9.73;8.82;;;11.20;99.90;;;;;;5005230;28;20236;-73
2023/05/08 04:57:12;;;;;;;8.77;7.97;;;12.10;99.90;;;;;;4997987;28;20288;-76
2023/05/08 04:59:39;;;;;;;8.90;8.00;;;13.00;99.90;;;;;;5004956;28;20688;-75
2023/05/08 05:02:07;;;;;;;9.48;8.63;;;13.50;99.90;;;;;;5003872;28;20204;-74
2023/05/08 05:04:35;;;;;;;9.85;8.40;;;13.80;99.90;;;;;;5013244;28;20767;-74
2023/05/08 05:07:02;;;;;;;9.23;8.32;;;14.00;99.90;;;;;;4997491;28;20218;-77
2023/05/08 05:09:29;;;;;;;8.95;8.15;;;13.80;99.90;;;;;;4998496;28;20697;-78
2023/05/08 05:11:56;;;;;;;9.35;8.32;;;14.10;99.90;;;;;;5000192;28;20209;-76
2023/05/08 05:14:24;;;;;;;9.32;7.88;;;14.60;99.90;;;;;;5004869;28;20220;-76
2023/05/08 05:16:52;;;;;;;8.77;7.80;;;14.60;99.90;;;;;;4992763;28;20206;-76
2023/05/08 05:19:19;;;;;;;8.60;7.80;;;14.80;99.90;;;;;;4999775;28;20259;-78
2023/05/08 05:21:47;;;;;;;8.27;7.57;;;15.20;99.90;;;;;;4999698;28;20216;-78
2023/05/08 05:24:14;;;;;;;8.48;7.18;;;15.40;99.20;;;;;;4997195;28;20298;-77
2023/05/08 05:26:41;;;;;;;8.00;7.20;;;15.30;99.20;;;;;;4997558;28;20212;-78
2023/05/08 05:29:10;;;;;;;8.67;7.23;;;15.40;98.90;;;;;;4999514;28;20462;-78
2023/05/08 05:31:37;;;;;;;8.23;7.50;;;15.80;97.90;;;;;;5003912;28;20540;-79
2023/05/08 05:34:04;;;;;;;8.17;7.47;;;16.20;96.90;;;;;;4996427;28;20790;-79
2023/05/08 05:36:31;;;;;;;8.63;7.83;;;16.20;96.50;;;;;;4992749;28;20535;-79
2023/05/08 05:39:00;;;;;;;7.53;6.70;;;16.50;95.50;;;;;;5000657;28;20881;-78
2023/05/08 05:41:27;;;;;;;7.50;6.90;;;16.60;94.90;;;;;;4998955;28;20532;-80
2023/05/08 05:43:55;;;;;;;7.27;6.60;;;16.50;94.60;;;;;;5005170;28;20459;-80
2023/05/08 05:46:26;;;;;;;8.17;6.10;;;16.70;94.80;;;;;;4988095;28;20493;-80
2023/05/08 05:48:54;;;;;;;7.43;6.73;;;17.10;93.80;;;;;;4996513;28;20563;-79
2023/05/08 05:51:21;;;;;;;8.33;7.00;;;17.10;93.60;;;;;;5001048;28;20536;-81
2023/05/08 05:53:49;;;;;;;8.40;6.90;;;17.40;93.30;;;;;;4995223;28;20452;-81
2023/05/08 05:56:18;;;;;;;7.33;6.73;;;17.50;92.90;;;;;;4990566;28;20495;-79
2023/05/08 05:58:46;;;;;;;10.00;7.30;;;17.60;92.70;;;;;;4997504;28;20487;-81
2023/05/08 06:01:13;;;;;;;8.50;7.70;;;17.40;92.40;;;;;;4984641;28;20440;-80
2023/05/08 06:03:47;;;;;;;8.83;8.03;;;16.90;93.10;;;;;;4999611;28;20523;-80
2023/05/08 06:06:14;;;;;;;9.37;8.40;;;16.60;93.70;;;;;;4995830;28;20445;-82
2023/05/08 06:08:41;;;;;;;11.83;8.97;;;16.10;94.70;;;;;;4988070;28;20499;-78
2023/05/08 06:11:09;;;;;;;8.80;8.00;;;16.00;95.40;;;;;;4999287;28;20569;-80
2023/05/08 06:13:39;;;;;;;8.20;7.50;;;15.80;96.00;;;;;;4993590;28;20482;-80
2023/05/08 06:16:08;;;;;;;9.43;8.53;;;15.90;95.80;;;;;;5004015;28;20476;-81
2023/05/08 06:18:35;;;;;;;10.67;7.90;;;16.20;95.50;;;;;;4993859;28;20455;-80
2023/05/08 06:21:03;;;;;;;8.60;7.70;;;16.20;95.40;;;;;;5005032;28;20546;-81
2023/05/08 06:23:30;;;;;;;8.00;7.30;;;16.20;95.10;;;;;;5001025;28;20511;-80
2023/05/08 06:26:03;;;;;;;8.37;7.57;;;16.70;94.80;;;;;;4996017;28;20447;-80
2023/05/08 06:28:30;;;;;;;8.70;7.90;;;16.90;93.80;;;;;;5000103;28;20442;-79
2023/05/08 06:30:58;;;;;;;10.00;9.10;;;16.50;93.90;;;;;;5002500;28;20457;-79
2023/05/08 06:33:26;;;;;;;7.90;7.17;;;15.90;95.00;;;;;;4987445;28;20853;-78
2023/05/08 06:35:54;;;;;;;8.98;8.18;;;15.70;95.50;;;;;;4989889;28;20523;-76
2023/05/08 06:38:21;;;;;;;10.27;8.70;;;15.30;96.30;;;;;;4991763;28;20650;-78
2023/05/08 06:40:49;;;;;;;7.97;7.28;;;15.40;96.80;;;;;;5001434;28;20306;-75
2023/05/08 06:43:15;;;;;;;9.07;8.30;;;15.60;96.90;;;;;;5002456;28;20655;-76
2023/05/08 06:45:44;;;;;;;7.97;7.20;;;15.60;96.60;;;;;;4982045;28;20562;-76
2023/05/08 06:48:12;;;;;;;6.97;6.37;;;15.70;96.40;;;;;;4985019;28;20208;-80
2023/05/08 06:50:39;;;;;;;9.57;7.40;;;15.90;96.00;;;;;;4993331;28;20570;-80
2023/05/08 06:53:06;;;;;;;8.30;7.50;;;15.90;96.20;;;;;;5004944;28;20531;-77
2023/05/08 06:55:33;;;;;;;11.25;7.90;;;15.90;96.00;;;;;;4998737;28;20853;-80
2023/05/08 06:58:00;;;;;;;8.40;7.57;;;16.00;96.00;;;;;;4991793;28;20292;-80
2023/05/08 07:00:28;;;;;;;9.27;8.43;;;16.10;95.60;;;;;;5000020;28;20656;-76
2023/05/08 07:02:55;;;;;;;8.80;8.00;;;16.20;95.40;;;;;;4994795;28;20435;-77
2023/05/08 07:05:24;;;;;;;8.60;7.80;;;16.30;95.70;;;;;;5003278;28;20454;-77
2023/05/08 07:07:52;;;;;;;10.57;7.87;;;16.20;95.40;;;;;;5006510;28;20448;-77
2023/05/08 07:10:21;;;;;;;10.57;9.00;;;16.20;95.60;;;;;;4996541;28;20467;-77
2023/05/08 07:12:48;;;;;;;9.30;8.40;;;16.10;96.00;;;;;;5002443;28;20455;-76
2023/05/08 07:15:15;;;;;;;8.00;7.30;;;16.20;96.00;;;;;;5005796;28;20523;-76
2023/05/08 07:17:42;;;;;;;9.07;8.20;;;16.40;95.70;;;;;;5002608;28;20509;-75
2023/05/08 07:20:10;;;;;;;8.10;7.40;;;16.40;95.30;;;;;;5005652;28;20546;-76
2023/05/08 07:22:38;;;;;;;8.70;7.47;;;16.30;95.30;;;;;;5003186;28;20527;-74
2023/05/08 07:25:08;;;;;;;8.60;7.80;;;16.30;95.40;;;;;;5013058;28;20504;-76
2023/05/08 07:27:35;;;;;;;9.00;7.50;;;16.80;95.30;;;;;;5008069;28;20437;-75
2023/05/08 07:30:03;;;;;;;7.10;6.40;;;17.40;94.20;;;;;;4998330;28;20471;-74
2023/05/08 07:32:31;;;;;;;7.97;7.23;;;18.00;93.10;;;;;;5007664;28;20450;-76
2023/05/08 07:34:58;;;;;;;7.67;6.47;;;18.60;92.20;;;;;;5004323;28;20441;-75
2023/05/08 07:37:25;;;;;;;8.10;7.17;;;19.30;91.40;;;;;;5006578;28;20991;-76
2023/05/08 07:39:53;;;;;;;7.03;6.33;;;20.10;89.70;;;;;;4982894;28;20569;-78
2023/05/08 07:42:20;;;;;;;6.70;6.10;;;21.00;88.10;;;;;;4999610;28;20551;-77
2023/05/08 07:44:47;;;;;;;6.40;5.80;;;21.80;84.20;;;;;;5001634;28;20449;-76
2023/05/08 07:47:14;;;;;;;8.47;7.60;;;22.00;83.70;;;;;;5010831;28;20501;-78
2023/05/08 07:49:40;;;;;;;7.87;6.77;;;22.60;82.00;;;;;;4996390;28;20468;-76
2023/05/08 07:52:07;;;;;;;7.17;6.57;;;22.80;80.60;;;;;;4996970;28;20447;-73
2023/05/08 07:54:34;;;;;;;6.10;5.60;;;23.60;79.90;;;;;;5011456;28;20507;-75
2023/05/08 07:57:03;;;;;;;7.90;7.20;;;23.90;77.40;;;;;;5003427;28;20481;-75
2023/05/08 07:59:30;;;;;;;7.20;6.60;;;24.40;76.50;;;;;;5010397;28;20993;-76
2023/05/08 08:01:57;;;;;;;7.03;6.40;;;24.30;75.60;;;;;;5001081;28;20493;-76
2023/05/08 08:04:24;;;;;;;8.10;7.30;;;24.60;75.80;;;;;;5001271;28;20444;-77
2023/05/08 08:06:50;;;;;;;8.00;6.30;;;24.70;75.00;;;;;;4997874;28;20456;-75
2023/05/08 08:09:17;;;;;;;8.10;7.27;;;25.20;74.10;;;;;;4987373;28;20507;-74
2023/05/08 08:11:45;;;;;;;8.83;6.50;;;25.20;72.90;;;;;;5002319;28;20460;-75
2023/05/08 08:14:13;;;;;;;7.03;6.33;;;25.00;73.20;;;;;;5004455;28;20914;-73
2023/05/08 08:16:41;;;;;;;6.93;6.33;;;25.20;73.50;;;;;;4989609;28;20991;-77
2023/05/08 08:19:09;;;;;;;7.70;6.87;;;25.50;72.50;;;;;;5004175;28;20990;-72
2023/05/08 08:21:36;;;;;;;7.27;6.67;;;25.40;71.80;;;;;;5001932;28;20453;-74
2023/05/08 08:24:04;;;;;;;8.63;7.50;;;25.20;72.00;;;;;;4987610;28;20806;-72
2023/05/08 08:26:31;;;;;;;7.30;6.70;;;25.10;72.40;;;;;;5005369;28;20441;-71
2023/05/08 08:28:58;;;;;;;8.87;8.17;;;24.50;73.00;;;;;;5005783;28;20471;-73
2023/05/08 08:31:26;;;;;;;8.33;7.53;;;23.70;74.00;;;;;;4999569;28;20448;-72
2023/05/08 08:33:53;;;;;;;7.50;6.80;;;23.90;74.80;;;;;;5008702;28;20522;-72
2023/05/08 08:36:20;;;;;;;7.03;6.33;;;23.60;74.10;;;;;;4994098;28;20561;-72
2023/05/08 08:38:47;;;;;;;8.03;7.27;;;23.80;74.10;;;;;;5003270;28;20561;-71
2023/05/08 08:41:14;;;;;;;7.60;6.90;;;23.90;74.70;;;;;;5003897;28;20566;-71
2023/05/08 08:43:42;;;;;;;7.70;6.97;;;24.70;74.10;;;;;;5005403;28;20447;-73
2023/05/08 08:46:11;;;;;;;8.47;7.43;;;25.10;72.60;;;;;;5004398;28;20443;-72
2023/05/08 08:48:44;;;;;;;7.53;6.70;;;25.20;72.70;;;;;;5008807;28;20452;-70
2023/05/08 08:51:17;;;;;;;8.80;7.67;;;25.10;72.50;;;;;;4997960;28;20979;-76
2023/05/08 08:53:49;;;;;;;8.20;7.20;;;25.60;72.80;;;;;;5002394;28;20540;-72
2023/05/08 08:56:17;;;;;;;7.70;7.00;;;25.90;71.80;;;;;;5004046;28;20590;-74
2023/05/08 08:58:54;;;;;;;9.43;8.53;;;26.20;70.70;;;;;;5000648;28;20453;-71
2023/05/08 09:01:23;;;;;;;9.03;8.10;;;25.40;71.00;;;;;;4993581;28;20502;-75
2023/05/08 09:03:52;;;;;;;8.97;8.17;;;25.30;72.40;;;;;;5002838;28;20519;-72
2023/05/08 09:06:19;;;;;;;9.27;8.37;;;24.50;73.60;;;;;;5004635;28;20448;-71
2023/05/08 09:08:47;;;;;;;8.90;8.20;;;24.20;74.90;;;;;;5005559;28;20551;-72
2023/05/08 09:11:14;;;;;;;8.60;7.70;;;24.30;75.90;;;;;;5005649;28;20549;-73
2023/05/08 09:13:41;;;;;;;8.80;8.00;;;24.30;76.60;;;;;;5000384;28;20480;-74
2023/05/08 09:16:08;;;;;;;9.90;9.00;;;24.80;75.30;;;;;;5007331;28;20566;-72
2023/05/08 09:18:36;;;;;;;9.23;8.40;;;24.70;74.40;;;;;;5001528;28;20857;-74
2023/05/08 09:21:13;;;;;;;10.47;9.47;;;24.30;75.00;;;;;;4994778;28;20548;-70
2023/05/08 09:23:59;;;;;;;11.17;10.27;;;23.50;76.40;;;;;;4996999;28;20476;-71
2023/05/08 09:26:28;;;;;;;9.37;8.47;;;22.70;78.60;;;;;;5005323;28;20444;-73
2023/05/08 09:29:20;;;;;;;11.20;10.00;;;22.40;79.60;;;;;;5002315;28;20493;-70
2023/05/08 09:31:49;;;;;;;9.77;8.87;;;22.50;80.00;;;;;;4996135;28;20449;-75
2023/05/08 09:34:27;;;;;;;8.93;8.07;;;22.50;80.40;;;;;;5001932;28;20493;-70
2023/05/08 09:36:56;;;;;;;11.37;9.87;;;22.40;80.10;;;;;;5014754;28;20482;-71
2023/05/08 09:39:27;;;;;;;10.00;8.60;;;22.50;80.50;;;;;;4999145;28;21068;-72
2023/05/08 09:41:58;;;;;;;9.10;8.20;;;22.60;80.50;;;;;;4976983;28;20507;-73
2023/05/08 09:44:44;;;;;;;9.13;8.33;;;23.00;80.70;;;;;;4986348;28;20804;-72
2023/05/08 09:47:11;;;;;;;10.17;9.27;;;23.30;78.70;;;;;;5006416;28;20449;-71
2023/05/08 09:49:59;;;;;;;9.17;8.33;;;22.90;78.90;;;;;;4985960;28;20504;-72
2023/05/08 09:52:27;;;;;;;10.23;9.33;;;22.70;79.30;;;;;;4994914;28;20543;-71
2023/05/08 09:55:06;;;;;;;9.43;7.90;;;21.90;81.20;;;;;;5000038;28;20534;-73
2023/05/08 09:57:37;;;;;;;10.90;9.83;;;21.80;82.60;;;;;;4999522;28;20552;-74
2023/05/08 10:00:07;;;;;;;11.83;8.50;;;21.90;82.00;;;;;;4992540;28;20476;-73
2023/05/08 10:02:35;;;;;;;9.43;8.63;;;21.30;82.40;;;;;;5002484;28;20440;-73
2023/05/08 10:05:03;;;;;;;9.50;8.60;;;21.30;83.60;;;;;;5001676;28;20444;-74
2023/05/08 10:07:32;;;;;;;9.23;8.43;;;21.50;84.30;;;;;;5001227;28;20935;-75
2023/05/08 10:10:02;;;;;;;10.33;9.33;;;22.00;83.90;;;;;;4992634;28;20507;-73
2023/05/08 10:12:30;;;;;;;9.70;8.80;;;22.00;82.60;;;;;;4989691;28;20888;-74
2023/05/08 10:14:57;;;;;;;10.00;9.20;;;22.10;83.00;;;;;;4994157;28;20538;-73
2023/05/08 10:17:33;;;;;;;10.80;8.73;;;21.90;83.10;;;;;;5001343;28;20503;-74
2023/05/08 10:20:03;;;;;;;9.67;8.10;;;21.80;83.80;;;;;;4969017;28;20551;-73
2023/05/08 10:22:36;;;;;;;10.03;9.03;;;21.60;84.10;;;;;;4995038;28;20444;-74
2023/05/08 10:25:03;;;;;;;9.50;8.60;;;21.20;85.20;;;;;;4989001;28;20440;-74
2023/05/08 10:27:41;;;;;;;14.53;10.77;;;21.20;85.50;;;;;;4997204;28;20456;-73
2023/05/08 10:30:13;;;;;;;10.07;9.00;;;21.10;86.20;;;;;;4998109;28;20558;-74
2023/05/08 10:32:45;;;;;;;9.30;8.50;;;21.20;86.00;;;;;;4999790;28;20522;-74
2023/05/08 10:35:12;;;;;;;10.73;9.73;;;21.00;86.00;;;;;;5000625;28;20451;-73
2023/05/08 10:37:42;;;;;;;10.47;9.57;;;20.70;87.20;;;;;;5001514;28;20887;-75
2023/05/08 10:40:10;;;;;;;10.50;9.50;;;20.40;87.70;;;;;;4996002;28;20875;-74
2023/05/08 10:42:38;;;;;;;9.40;8.50;;;20.20;88.00;;;;;;5000266;28;20788;-73
2023/05/08 10:45:07;;;;;;;10.77;9.73;;;19.90;89.60;;;;;;4997196;28;20539;-73
2023/05/08 10:47:44;;;;;;;9.97;9.10;;;19.80;90.40;;;;;;5006711;28;20515;-75
2023/05/08 10:50:22;;;;;;;10.83;9.77;;;19.80;90.30;;;;;;4996446;28;21029;-74
2023/05/08 10:52:57;;;;;;;11.57;10.33;;;19.80;90.50;;;;;;4985223;28;20440;-74
2023/05/08 10:55:29;;;;;;;10.20;9.30;;;19.90;90.70;;;;;;4968422;28;20502;-73
2023/05/08 10:58:03;;;;;;;9.77;8.80;;;20.10;90.50;;;;;;5012348;28;20478;-74
2023/05/08 11:00:33;;;;;;;9.77;8.90;;;20.10;90.30;;;;;;5002102;28;20550;-71
2023/05/08 11:03:05;;;;;;;8.77;7.97;;;20.40;90.30;;;;;;4999488;28;20448;-71
2023/05/08 11:05:46;;;;;;;10.20;9.30;;;20.40;90.20;;;;;;4997921;28;20458;-73
2023/05/08 11:08:17;;;;;;;10.93;9.93;;;20.20;90.00;;;;;;5004032;28;20431;-75
2023/05/08 11:10:47;;;;;;;10.60;9.27;;;20.20;89.80;;;;;;5006109;28;20476;-73
2023/05/08 11:13:14;;;;;;;10.00;9.20;;;20.20;90.30;;;;;;4998241;28;20537;-70
2023/05/08 11:15:42;;;;;;;11.33;10.33;;;20.30;90.10;;;;;;4994926;28;20852;-72
2023/05/08 11:18:10;;;;;;;10.27;9.27;;;20.20;90.20;;;;;;5000748;28;20474;-73
2023/05/08 11:20:41;;;;;;;13.97;9.20;;;20.20;90.40;;;;;;5002597;28;20472;-73
2023/05/08 11:23:25;;;;;;;10.23;9.17;;;20.00;90.60;;;;;;4992300;28;20535;-75
2023/05/08 11:26:01;;;;;;;10.90;9.70;;;20.00;90.70;;;;;;4996427;28;20549;-73
2023/05/08 11:28:32;;;;;;;9.57;8.63;;;20.10;90.60;;;;;;5003317;28;20519;-72
2023/05/08 11:31:04;;;;;;;11.30;10.20;;;20.20;91.00;;;;;;4996631;28;20464;-72
2023/05/08 11:33:31;;;;;;;10.60;9.50;;;20.10;90.70;;;;;;5005409;28;20484;-72
2023/05/08 11:36:00;;;;;;;10.50;9.50;;;20.10;90.70;;;;;;4996408;28;20956;-72
2023/05/08 11:38:34;;;;;;;10.37;8.90;;;20.00;90.90;;;;;;5002855;28;20450;-73
2023/05/08 11:41:04;;;;;;;10.57;9.47;;;20.00;91.10;;;;;;4999998;28;20448;-72
2023/05/08 11:44:18;;;;;;;12.30;9.73;;;20.10;91.10;;;;;;4989979;28;20490;-73
2023/05/08 11:46:50;;;;;;;9.70;8.80;;;20.20;91.00;;;;;;4982302;28;20449;-76
2023/05/08 11:49:19;;;;;;;9.67;8.70;;;20.30;90.80;;;;;;4998507;28;20478;-73
2023/05/08 11:51:48;;;;;;;10.00;9.10;;;20.40;90.80;;;;;;4994859;28;20469;-74
2023/05/08 11:54:19;;;;;;;11.63;10.50;;;20.40;90.60;;;;;;4994565;28;20784;-74
2023/05/08 11:56:47;;;;;;;10.10;9.20;;;20.30;90.80;;;;;;4989029;28;20523;-73
2023/05/08 11:59:15;;;;;;;11.47;10.37;;;20.10;90.90;;;;;;4997657;28;20483;-74
2023/05/08 12:01:43;;;;;;;10.97;9.97;;;20.20;91.10;;;;;;4993443;28;20461;-77
2023/05/08 12:04:11;;;;;;;9.20;8.40;;;20.20;91.10;;;;;;5004699;28;20811;-71
2023/05/08 12:06:39;;;;;;;10.03;9.10;;;20.20;91.10;;;;;;4999599;28;20539;-72
2023/05/08 12:09:12;;;;;;;10.20;9.20;;;20.20;91.00;;;;;;4984285;28;20473;-70
2023/05/08 12:11:42;;;;;;;9.47;8.67;;;20.10;91.20;;;;;;4986007;28;20905;-73
2023/05/08 12:14:09;;;;;;;10.30;8.90;;;20.20;91.20;;;;;;4984404;28;20453;-73
2023/05/08 12:16:39;;;;;;;10.60;9.50;;;20.30;91.30;;;;;;4987217;28;20889;-72
2023/05/08 12:19:10;;;;;;;11.63;8.93;;;20.30;91.00;;;;;;4981589;28;20548;-71
2023/05/08 12:21:37;;;;;;;9.67;8.23;;;20.50;90.80;;;;;;4986029;28;20961;-74
2023/05/08 12:24:06;;;;;;;9.30;8.40;;;20.50;90.70;;;;;;4983362;28;20463;-74
2023/05/08 12:26:36;;;;;;;10.07;9.17;;;20.60;90.70;;;;;;4980557;28;20460;-71
2023/05/08 12:29:06;;;;;;;9.63;8.73;;;20.60;90.80;;;;;;4986252;28;20474;-72
2023/05/08 12:31:33;;;;;;;9.10;7.80;;;20.60;90.70;;;;;;4988929;28;20481;-73
2023/05/08 12:34:01;;;;;;;8.60;7.90;;;20.70;91.00;;;;;;4986700;28;20540;-72
2023/05/08 12:36:28;;;;;;;8.63;7.80;;;20.80;90.90;;;;;;4990517;28;20543;-73
2023/05/08 12:39:10;;;;;;;12.83;8.33;;;20.80;90.90;;;;;;4991185;28;20559;-72
2023/05/08 12:41:42;;;;;;;8.20;7.47;;;20.80;90.30;;;;;;4992259;28;20811;-70
2023/05/08 12:44:18;;;;;;;8.17;7.47;;;20.70;90.70;;;;;;4990901;28;20707;-72
2023/05/08 12:46:50;;;;;;;9.50;8.50;;;20.80;90.60;;;;;;4985316;28;20476;-75
2023/05/08 12:49:25;;;;;;;9.13;8.33;;;20.90;90.60;;;;;;4990653;28;20484;-72
2023/05/08 12:51:52;;;;;;;9.53;8.63;;;20.80;90.40;;;;;;4986531;28;20465;-73
2023/05/08 12:54:19;;;;;;;12.03;9.10;;;20.70;90.60;;;;;;4990284;28;20502;-72
2023/05/08 12:56:46;;;;;;;9.93;9.03;;;20.80;90.60;;;;;;5002925;28;20491;-73